KTDZ/TDZ METAR and TAF weather

Enter ICAO airport designator
Station Type Date Time Source
KTDZ METAR 2022/10/01 08:53 UTC NOAA

KTDZ 010853Z AUTO 35004KT 10SM CLR 14/09 A3013 RMK AO2 SLP200 T01390094 56007


Station Type Date Time Source
KTDZ Decoded METAR 2022/10/01 08:53 UTC NOAA

TOLEDO METCALF FIELD, OH, United States (KTDZ) 41-34N 83-29W 189M
Oct 01, 2022 - 04:53 AM EDT / 2022.10.01 0853 UTC
Wind: from the N (350 degrees) at 5 MPH (4 KT):0
Visibility: 10 mile(s):0
Sky conditions: clear
Temperature: 57.0 F (13.9 C)
Dew Point: 48.9 F (9.4 C)
Relative Humidity: 74%
Pressure (altimeter): 30.13 in. Hg (1020 hPa)
Pressure tendency: 0.02 inches (0.7 hPa) lower than three hours ago
ob: KTDZ 010853Z AUTO 35004KT 10SM CLR 14/09 A3013 RMK AO2 SLP200 T01390094 56007
cycle: 9

Station Type Date Time Source
KTDZ TAF UTC NOAA

Error!

Example: see airport list